createdAt,value
2017-10-02T00:00:34.649Z,50.03
2017-10-02T00:03:07.130Z,47.67
2017-10-02T00:05:39.327Z,50.87
2017-10-02T00:08:11.652Z,44.63
2017-10-02T00:10:44.109Z,47.20
2017-10-02T00:13:17.235Z,48.20
2017-10-02T00:15:49.618Z,51.20
2017-10-02T00:18:21.965Z,60.40
2017-10-02T00:20:54.285Z,47.93
2017-10-02T00:23:26.821Z,51.90
2017-10-02T00:25:59.329Z,52.10
2017-10-02T00:28:31.941Z,58.47
2017-10-02T00:31:04.092Z,59.77
2017-10-02T00:33:37.485Z,59.40
2017-10-02T00:36:09.829Z,66.00
2017-10-02T00:38:42.050Z,69.20
2017-10-02T00:41:14.261Z,64.07
2017-10-02T00:43:46.507Z,61.20
2017-10-02T00:46:18.816Z,60.07
2017-10-02T00:48:51.313Z,60.10
2017-10-02T00:51:23.924Z,66.87
2017-10-02T00:53:56.140Z,57.13
2017-10-02T00:56:28.561Z,59.13
2017-10-02T00:59:00.919Z,61.60
2017-10-02T01:01:34.015Z,64.23
2017-10-02T01:04:06.290Z,66.50
2017-10-02T01:06:38.695Z,63.80
2017-10-02T01:09:11.076Z,57.97
2017-10-02T01:11:43.493Z,58.83
2017-10-02T01:14:15.919Z,59.73
2017-10-02T01:16:49.190Z,59.83
2017-10-02T01:19:21.611Z,56.20
2017-10-02T01:21:53.978Z,64.23
2017-10-02T01:24:26.368Z,62.97
2017-10-02T01:26:58.623Z,64.03
2017-10-02T01:29:31.070Z,60.40
2017-10-02T01:32:03.422Z,55.27
2017-10-02T01:34:35.809Z,57.57
2017-10-02T01:37:08.180Z,58.67
2017-10-02T01:39:41.213Z,51.23
2017-10-02T01:42:13.695Z,51.97
2017-10-02T01:44:46.113Z,63.63
2017-10-02T01:47:18.482Z,54.90
2017-10-02T01:49:50.928Z,54.37
2017-10-02T01:52:23.411Z,58.23
2017-10-02T01:54:55.656Z,59.13
2017-10-02T01:57:28.725Z,50.27
2017-10-02T02:00:01.877Z,56.40
2017-10-02T02:02:34.279Z,59.30
2017-10-02T02:05:06.556Z,56.53
2017-10-02T02:07:38.780Z,56.43
2017-10-02T02:10:11.021Z,58.03
2017-10-02T02:12:43.401Z,53.23
2017-10-02T02:15:15.821Z,58.70
2017-10-02T02:17:48.178Z,56.37
2017-10-02T02:20:21.127Z,55.37
2017-10-02T02:22:53.533Z,57.47
2017-10-02T02:25:25.805Z,58.30
2017-10-02T02:27:58.033Z,58.90
2017-10-02T02:30:30.350Z,72.40
2017-10-02T02:33:02.701Z,58.57
2017-10-02T02:35:35.035Z,60.27
2017-10-02T02:38:07.371Z,60.20
2017-10-02T02:40:39.743Z,61.37
2017-10-02T02:43:12.021Z,61.57
2017-10-02T02:45:44.453Z,61.13
2017-10-02T02:48:16.742Z,61.40
2017-10-02T02:50:49.269Z,59.93
2017-10-02T02:53:21.575Z,54.57
2017-10-02T02:55:53.880Z,62.03
2017-10-02T02:58:26.206Z,59.77
2017-10-02T03:00:59.385Z,56.03
2017-10-02T03:03:31.720Z,60.70
2017-10-02T03:06:04.088Z,57.73
2017-10-02T03:08:36.444Z,54.40
2017-10-02T03:11:08.645Z,59.77
2017-10-02T03:13:40.921Z,56.73
2017-10-02T03:16:13.269Z,62.13
2017-10-02T03:18:45.673Z,56.03
2017-10-02T03:21:18.102Z,60.37
2017-10-02T03:23:50.549Z,61.57
2017-10-02T03:26:22.828Z,60.97
2017-10-02T03:28:55.185Z,61.80
2017-10-02T03:31:27.591Z,60.10
2017-10-02T03:34:00.004Z,61.73
2017-10-02T03:36:32.353Z,70.33
2017-10-02T03:39:04.850Z,68.03
2017-10-02T03:41:37.291Z,58.77
2017-10-02T03:44:09.688Z,58.30
2017-10-02T03:46:42.004Z,68.03
2017-10-02T03:49:14.274Z,67.40
2017-10-02T03:51:47.407Z,59.97
2017-10-02T03:54:19.620Z,62.67
2017-10-02T03:56:51.881Z,64.03
2017-10-02T03:59:24.209Z,59.40
2017-10-02T04:01:57.293Z,55.37
2017-10-02T04:04:29.414Z,58.93
2017-10-02T04:07:02.470Z,62.40
2017-10-02T04:09:34.673Z,53.00
2017-10-02T04:12:06.886Z,58.23
2017-10-02T04:14:39.226Z,63.63
2017-10-02T04:17:11.631Z,57.67
2017-10-02T04:19:43.845Z,56.70
2017-10-02T04:22:16.265Z,50.87
2017-10-02T04:24:48.640Z,56.00
2017-10-02T04:27:20.975Z,53.23
2017-10-02T04:29:53.397Z,47.63
2017-10-02T04:32:25.815Z,48.27
2017-10-02T04:34:58.089Z,47.50
2017-10-02T04:37:30.510Z,50.10
2017-10-02T04:40:02.801Z,47.10
2017-10-02T04:42:34.932Z,52.40
2017-10-02T04:45:07.233Z,47.87
2017-10-02T04:47:40.305Z,44.43
2017-10-02T04:50:12.636Z,54.90
2017-10-02T04:52:45.037Z,48.90
2017-10-02T04:55:17.291Z,45.63
2017-10-02T04:57:49.497Z,49.23
2017-10-02T05:00:21.836Z,49.97
2017-10-02T05:02:54.100Z,45.17
2017-10-02T05:05:27.106Z,45.33
2017-10-02T05:07:59.418Z,47.23
2017-10-02T05:10:31.806Z,45.90
2017-10-02T05:13:04.015Z,37.70
2017-10-02T05:15:36.340Z,39.80
2017-10-02T05:18:08.632Z,41.63
2017-10-02T05:20:41.038Z,43.17
2017-10-02T05:23:13.450Z,42.67
2017-10-02T05:25:45.804Z,39.93
2017-10-02T05:28:18.081Z,40.50
2017-10-02T05:30:50.503Z,41.57
2017-10-02T05:33:22.760Z,41.90
2017-10-02T05:35:55.131Z,39.97
2017-10-02T05:38:27.678Z,41.13
2017-10-02T05:41:01.012Z,39.90
2017-10-02T05:43:33.514Z,38.50
2017-10-02T05:46:05.861Z,38.07
2017-10-02T05:48:38.350Z,40.83
2017-10-02T05:51:11.374Z,39.93
2017-10-02T05:53:43.693Z,37.60
2017-10-02T05:56:16.420Z,38.73
2017-10-02T05:58:48.879Z,36.67
2017-10-02T06:01:21.468Z,35.87
2017-10-02T06:03:53.801Z,35.00
2017-10-02T06:06:26.817Z,40.17
2017-10-02T06:08:59.419Z,38.80
2017-10-02T06:11:36.159Z,36.20
2017-10-02T06:14:09.484Z,37.43
2017-10-02T06:16:46.495Z,36.50
2017-10-02T06:19:19.148Z,36.23
2017-10-02T06:21:51.950Z,35.63
2017-10-02T06:24:24.349Z,35.30
2017-10-02T06:26:56.828Z,36.30
2017-10-02T06:29:29.897Z,36.33
2017-10-02T06:32:02.207Z,35.80
2017-10-02T06:34:35.190Z,32.40
2017-10-02T06:37:08.301Z,32.67
2017-10-02T06:39:41.489Z,37.43
2017-10-02T06:42:14.108Z,35.43
2017-10-02T06:44:46.667Z,41.23
2017-10-02T06:47:19.073Z,32.67
2017-10-02T06:49:51.379Z,31.07
2017-10-02T06:52:23.826Z,31.03
2017-10-02T06:54:56.262Z,30.87
2017-10-02T06:57:28.707Z,28.47
2017-10-02T07:00:01.259Z,34.63
2017-10-02T07:02:33.602Z,32.33
2017-10-02T07:05:06.062Z,28.93
2017-10-02T07:07:38.296Z,33.17
2017-10-02T07:10:10.706Z,28.17
2017-10-02T07:12:43.022Z,28.87
2017-10-02T07:15:15.255Z,26.57
2017-10-02T07:17:47.508Z,25.33
2017-10-02T07:20:19.914Z,27.50
2017-10-02T07:22:52.317Z,25.60
2017-10-02T07:25:25.430Z,25.73
2017-10-02T07:27:58.047Z,26.00
2017-10-02T07:30:30.474Z,25.13
2017-10-02T07:33:02.787Z,25.53
2017-10-02T07:35:35.770Z,26.27
2017-10-02T07:38:08.036Z,28.83
2017-10-02T07:40:40.979Z,24.80
2017-10-02T07:43:14.073Z,26.07
2017-10-02T07:45:46.485Z,23.00
2017-10-02T07:48:18.757Z,30.00
2017-10-02T07:50:50.961Z,25.27
2017-10-02T07:53:23.310Z,29.03
2017-10-02T07:55:55.729Z,24.47
2017-10-02T07:58:28.005Z,27.00
2017-10-02T08:01:01.192Z,22.00
2017-10-02T08:03:33.752Z,19.83
2017-10-02T08:06:06.158Z,21.97
2017-10-02T08:08:38.440Z,20.67
2017-10-02T08:11:11.198Z,18.63
2017-10-02T08:13:43.567Z,16.67
2017-10-02T08:16:15.829Z,21.10
2017-10-02T08:18:48.620Z,18.93
2017-10-02T08:27:21.828Z,17.50
2017-10-02T08:29:54.184Z,16.47
2017-10-02T08:32:26.555Z,16.57
2017-10-02T08:34:58.940Z,18.77
2017-10-02T08:37:31.519Z,19.33
2017-10-02T08:40:03.797Z,15.07
2017-10-02T08:42:36.323Z,20.40
2017-10-02T08:45:08.576Z,15.20
2017-10-02T08:47:38.850Z,21.07
2017-10-02T08:50:05.052Z,18.07
2017-10-02T08:52:31.283Z,14.05
2017-10-02T08:55:03.574Z,17.33
2017-10-02T08:57:36.085Z,16.90
2017-10-02T09:00:02.291Z,14.37
2017-10-02T09:02:28.448Z,16.17
2017-10-02T09:05:39.488Z,14.30
2017-10-02T09:08:05.745Z,13.13
2017-10-02T09:10:31.807Z,17.13
2017-10-02T09:12:57.969Z,14.80
2017-10-02T09:15:24.069Z,13.27
2017-10-02T09:17:50.879Z,11.53
2017-10-02T09:20:16.987Z,15.67
2017-10-02T09:22:43.108Z,17.23
2017-10-02T09:25:10.115Z,16.03
2017-10-02T09:27:36.257Z,13.53
2017-10-02T09:30:02.341Z,14.40
2017-10-02T09:32:29.188Z,21.03
2017-10-02T09:34:56.048Z,14.70
2017-10-02T09:37:22.941Z,14.43
2017-10-02T09:39:49.061Z,13.70
2017-10-02T09:42:15.275Z,10.70
2017-10-02T09:44:42.109Z,13.77
2017-10-02T09:47:08.208Z,10.00
2017-10-02T09:49:34.272Z,14.97
2017-10-02T09:52:00.433Z,10.73
2017-10-02T09:54:26.520Z,18.63
2017-10-02T09:56:52.580Z,14.30
2017-10-02T09:59:18.684Z,12.37
2017-10-02T10:01:44.790Z,14.13
2017-10-02T10:04:12.248Z,7.03
2017-10-02T10:06:38.307Z,12.07
2017-10-02T10:09:05.273Z,15.23
2017-10-02T10:11:31.365Z,9.77
2017-10-02T10:13:57.493Z,10.30
2017-10-02T10:16:23.580Z,7.63
2017-10-02T10:18:50.381Z,8.30
2017-10-02T10:21:16.463Z,9.50
2017-10-02T10:23:43.317Z,7.13
2017-10-02T10:26:10.987Z,8.90
2017-10-02T10:28:37.522Z,10.83
2017-10-02T10:31:04.619Z,8.37
2017-10-02T10:33:30.677Z,10.53
2017-10-02T10:35:56.793Z,7.90
2017-10-02T10:38:22.884Z,7.33
2017-10-02T10:40:48.968Z,7.40
2017-10-02T10:43:15.520Z,7.43
2017-10-02T10:45:42.083Z,9.53
2017-10-02T10:48:08.231Z,10.90
2017-10-02T10:50:34.324Z,9.73
2017-10-02T10:53:01.296Z,9.07
2017-10-02T10:55:27.484Z,14.20
2017-10-02T10:57:53.570Z,10.20
2017-10-02T11:00:19.669Z,10.10
2017-10-02T11:02:45.807Z,7.80
2017-10-02T11:05:12.073Z,8.90
2017-10-02T11:07:38.713Z,12.50
2017-10-02T11:10:04.828Z,7.80
2017-10-02T11:12:30.930Z,12.13
2017-10-02T11:14:57.004Z,18.63
2017-10-02T11:17:23.105Z,9.57
2017-10-02T11:19:49.249Z,12.00
2017-10-02T11:22:15.434Z,9.83
2017-10-02T11:24:41.628Z,19.97
2017-10-02T11:27:08.183Z,19.80
2017-10-02T11:29:34.284Z,15.90
2017-10-02T11:32:01.455Z,15.60
2017-10-02T11:34:27.577Z,22.80
2017-10-02T11:36:54.484Z,19.57
2017-10-02T11:39:20.589Z,26.17
2017-10-02T11:41:46.665Z,23.37
2017-10-02T11:44:12.748Z,16.83
2017-10-02T11:46:39.583Z,19.20
2017-10-02T11:49:05.672Z,20.33
2017-10-02T11:51:31.767Z,23.43
2017-10-02T11:53:58.622Z,101.97
2017-10-02T11:56:24.699Z,21.90
2017-10-02T11:58:50.872Z,52.50
2017-10-02T12:01:17.005Z,51.37
2017-10-02T12:03:43.226Z,25.80
2017-10-02T12:06:09.339Z,27.50
2017-10-02T12:08:35.462Z,51.43
2017-10-02T12:11:02.284Z,57.87
2017-10-02T12:13:28.410Z,25.70
2017-10-02T12:15:54.523Z,55.47
2017-10-02T12:18:20.614Z,61.63
2017-10-02T12:20:46.856Z,17.60
2017-10-02T12:23:13.026Z,36.63
2017-10-02T12:25:39.847Z,80.87
2017-10-02T12:28:05.944Z,53.10
2017-10-02T12:30:32.044Z,27.00
2017-10-02T12:32:58.126Z,26.83
2017-10-02T12:35:24.236Z,31.63
2017-10-02T12:37:50.390Z,33.63
2017-10-02T12:40:16.480Z,32.93
2017-10-02T12:42:42.557Z,21.60
2017-10-02T12:45:08.673Z,21.53
2017-10-02T12:47:35.487Z,19.27
2017-10-02T12:50:01.574Z,22.63
2017-10-02T12:52:27.692Z,18.97
2017-10-02T12:54:54.601Z,25.87
2017-10-02T12:57:20.680Z,18.53
2017-10-02T12:59:46.830Z,16.03
2017-10-02T13:02:13.775Z,21.50
2017-10-02T13:04:39.852Z,23.47
2017-10-02T13:07:05.976Z,19.60
2017-10-02T13:09:32.054Z,17.40
2017-10-02T13:11:58.134Z,21.90
2017-10-02T13:14:24.992Z,17.37
2017-10-02T13:16:51.122Z,16.77
2017-10-02T13:19:17.940Z,17.20
2017-10-02T13:21:44.095Z,18.80
2017-10-02T13:24:10.737Z,20.60
2017-10-02T13:26:37.023Z,17.43
2017-10-02T13:29:03.108Z,24.73
2017-10-02T13:31:29.205Z,16.13
2017-10-02T13:33:55.318Z,19.80
2017-10-02T13:36:21.517Z,17.57
2017-10-02T13:38:47.652Z,19.13
2017-10-02T13:41:13.790Z,18.77
2017-10-02T13:43:39.971Z,18.63
2017-10-02T13:46:06.804Z,25.50
2017-10-02T13:48:32.885Z,22.70
2017-10-02T13:50:58.992Z,22.40
2017-10-02T13:53:25.087Z,21.40
2017-10-02T13:55:51.211Z,22.90
2017-10-02T13:58:17.311Z,17.97
2017-10-02T14:00:43.434Z,21.40
2017-10-02T14:03:09.595Z,20.60
2017-10-02T14:05:36.443Z,27.37
2017-10-02T14:08:02.537Z,19.00
2017-10-02T14:10:28.640Z,21.37
2017-10-02T14:12:54.756Z,20.13
2017-10-02T14:15:20.823Z,20.00
2017-10-02T14:17:46.894Z,19.93
2017-10-02T14:20:13.068Z,18.97
2017-10-02T14:22:39.151Z,19.70
2017-10-02T14:25:05.249Z,19.20
2017-10-02T14:27:31.461Z,21.17
2017-10-02T14:29:57.552Z,20.80
2017-10-02T14:32:23.634Z,16.83
2017-10-02T14:34:49.760Z,23.37
2017-10-02T14:37:15.845Z,15.60
2017-10-02T14:39:42.692Z,19.80
2017-10-02T14:42:08.913Z,19.43
2017-10-02T14:44:35.038Z,18.33
2017-10-02T14:47:01.893Z,19.40
2017-10-02T14:49:28.751Z,17.27
2017-10-02T14:51:54.906Z,21.33
2017-10-02T14:54:21.083Z,19.00
2017-10-02T14:56:47.293Z,14.87
2017-10-02T14:59:13.433Z,18.20
2017-10-02T15:01:39.550Z,17.63
2017-10-02T15:04:06.512Z,14.60
2017-10-02T15:06:32.604Z,18.50
2017-10-02T15:08:58.748Z,16.17
2017-10-02T15:11:24.958Z,16.20
2017-10-02T15:13:51.122Z,17.30
2017-10-02T15:16:17.215Z,18.73
2017-10-02T15:18:43.401Z,17.80
2017-10-02T15:21:09.504Z,15.13
2017-10-02T15:23:35.594Z,15.25
2017-10-02T15:26:01.833Z,16.40
2017-10-02T15:28:27.934Z,15.03
2017-10-02T15:30:54.063Z,14.70
2017-10-02T15:33:20.184Z,15.37
2017-10-02T15:35:46.294Z,20.83
2017-10-02T15:38:12.421Z,25.10
2017-10-02T15:40:38.648Z,23.37
2017-10-02T15:43:04.781Z,18.90
2017-10-02T15:45:30.880Z,16.80
2017-10-02T15:47:57.034Z,19.27
2017-10-02T15:50:23.154Z,23.57
2017-10-02T15:52:49.244Z,23.30
2017-10-02T15:55:16.048Z,51.80
2017-10-02T15:57:43.100Z,25.47
2017-10-02T16:00:09.933Z,24.10
2017-10-02T16:02:36.284Z,27.97
2017-10-02T16:05:03.516Z,22.70
2017-10-02T16:07:29.836Z,23.50
2017-10-02T16:09:56.115Z,19.90
2017-10-02T16:12:23.013Z,35.53
2017-10-02T16:14:49.229Z,17.57
2017-10-02T16:17:15.472Z,18.80
2017-10-02T16:19:42.685Z,18.60
2017-10-02T16:22:08.834Z,19.20
2017-10-02T16:24:34.988Z,18.83
2017-10-02T16:27:02.307Z,20.10
2017-10-02T16:29:30.510Z,24.20
2017-10-02T16:31:56.761Z,21.20
2017-10-02T16:34:22.963Z,25.00
2017-10-02T16:36:49.397Z,27.13
2017-10-02T16:39:16.392Z,19.10
2017-10-02T16:41:42.660Z,17.80
2017-10-02T16:44:08.952Z,28.43
2017-10-02T16:46:35.256Z,21.90
2017-10-02T16:49:01.501Z,26.73
2017-10-02T16:51:27.761Z,34.80
2017-10-02T16:53:54.748Z,23.77
2017-10-02T16:56:20.955Z,19.63
2017-10-02T16:58:47.838Z,21.67
2017-10-02T17:01:14.409Z,22.30
2017-10-02T17:03:41.307Z,31.63
2017-10-02T17:06:07.421Z,28.97
2017-10-02T17:08:33.735Z,32.23
2017-10-02T17:10:59.816Z,31.40
2017-10-02T17:13:25.998Z,29.23
2017-10-02T17:15:54.949Z,22.00
2017-10-02T17:18:21.061Z,84.23
2017-10-02T17:20:47.554Z,25.37
2017-10-02T17:23:17.660Z,23.53
2017-10-02T17:25:46.350Z,22.70
2017-10-02T17:28:15.071Z,64.63
2017-10-02T17:30:48.284Z,81.13
2017-10-02T17:33:17.140Z,24.60
2017-10-02T17:35:51.507Z,62.70
2017-10-02T17:38:20.030Z,32.47
2017-10-02T17:40:48.796Z,25.20
2017-10-02T17:43:15.057Z,36.87
2017-10-02T17:45:41.349Z,73.90
2017-10-02T17:48:07.512Z,25.80
2017-10-02T17:50:33.820Z,24.50
2017-10-02T17:52:59.920Z,19.50
2017-10-02T17:55:26.756Z,25.40
2017-10-02T17:57:52.909Z,22.90
2017-10-02T18:00:19.272Z,24.47
2017-10-02T18:02:46.334Z,27.03
2017-10-02T18:05:13.214Z,25.03
2017-10-02T18:07:39.916Z,25.77
2017-10-02T18:10:06.064Z,31.70
2017-10-02T18:12:33.604Z,23.90
2017-10-02T18:14:59.806Z,27.30
2017-10-02T18:17:25.904Z,23.17
2017-10-02T18:19:52.040Z,22.93
2017-10-02T18:22:18.239Z,22.87
2017-10-02T18:24:44.468Z,26.80
2017-10-02T18:27:10.603Z,22.37
2017-10-02T18:29:36.752Z,24.70
2017-10-02T18:32:02.980Z,24.00
2017-10-02T18:34:29.121Z,26.10
2017-10-02T18:36:55.570Z,28.50
2017-10-02T18:39:21.711Z,26.17
2017-10-02T18:41:47.869Z,28.90
2017-10-02T18:44:14.205Z,28.33
2017-10-02T18:46:40.325Z,23.77
2017-10-02T18:49:06.483Z,23.93
2017-10-02T18:51:32.786Z,25.47
2017-10-02T18:53:58.949Z,32.63
2017-10-02T18:56:25.028Z,23.63
2017-10-02T18:58:51.244Z,29.37
2017-10-02T19:01:24.398Z,35.03
2017-10-02T19:03:51.242Z,29.20
2017-10-02T19:06:18.120Z,23.63
2017-10-02T19:08:44.217Z,21.83
2017-10-02T19:11:10.397Z,23.47
2017-10-02T19:13:37.854Z,24.07
2017-10-02T19:16:04.771Z,26.20
2017-10-02T19:18:30.854Z,22.57
2017-10-02T19:20:56.991Z,24.80
2017-10-02T19:23:23.833Z,21.10
2017-10-02T19:25:50.034Z,24.40
2017-10-02T19:28:16.129Z,30.27
2017-10-02T19:30:42.975Z,20.20
2017-10-02T19:33:09.825Z,28.33
2017-10-02T19:35:36.648Z,23.30
2017-10-02T19:38:02.792Z,23.63
2017-10-02T19:40:28.942Z,22.80
2017-10-02T19:42:55.088Z,22.10
2017-10-02T19:45:21.193Z,21.20
2017-10-02T19:47:47.323Z,20.37
2017-10-02T19:50:13.423Z,23.60
2017-10-02T19:52:41.153Z,24.47
2017-10-02T19:55:07.295Z,20.63
2017-10-02T19:57:41.163Z,21.80
2017-10-02T20:00:07.571Z,29.20
2017-10-02T20:02:33.708Z,21.30
2017-10-02T20:04:59.797Z,23.53
2017-10-02T20:07:25.930Z,19.60
2017-10-02T20:09:52.012Z,21.63
2017-10-02T20:12:18.112Z,24.67
2017-10-02T20:14:44.436Z,23.40
2017-10-02T20:17:10.611Z,17.37
2017-10-02T20:19:36.902Z,18.53
2017-10-02T20:22:03.035Z,17.03
2017-10-02T20:24:29.882Z,18.63
2017-10-02T20:26:55.988Z,19.33
2017-10-02T20:29:22.105Z,19.47
2017-10-02T20:31:48.277Z,25.23
2017-10-02T20:34:14.339Z,21.40
2017-10-02T20:36:40.480Z,15.80
2017-10-02T20:39:07.324Z,19.77
2017-10-02T20:41:33.437Z,21.90
2017-10-02T20:43:59.626Z,18.73
2017-10-02T20:46:25.736Z,19.47
2017-10-02T20:48:51.913Z,16.60
2017-10-02T20:51:18.161Z,18.97
2017-10-02T20:53:44.249Z,16.10
2017-10-02T20:56:10.390Z,17.83
2017-10-02T20:58:36.500Z,17.40
2017-10-02T21:01:02.587Z,20.80
2017-10-02T21:03:29.489Z,19.70
2017-10-02T21:05:55.769Z,18.90
2017-10-02T21:08:21.891Z,16.77
2017-10-02T21:10:48.014Z,17.00
2017-10-02T21:13:14.244Z,16.20
2017-10-02T21:15:40.384Z,23.27
2017-10-02T21:18:06.820Z,16.83
2017-10-02T21:20:33.007Z,18.83
2017-10-02T21:22:59.104Z,13.97
2017-10-02T21:25:25.204Z,18.40
2017-10-02T21:27:52.135Z,19.73
2017-10-02T21:30:18.229Z,20.33
2017-10-02T21:32:44.336Z,19.03
2017-10-02T21:35:10.758Z,22.43
2017-10-02T21:37:37.955Z,16.63
2017-10-02T21:40:04.303Z,15.23
2017-10-02T21:42:30.517Z,16.77
2017-10-02T21:44:57.413Z,21.00
2017-10-02T21:47:23.663Z,21.50
2017-10-02T21:49:49.997Z,20.40
2017-10-02T21:52:16.090Z,20.10
2017-10-02T21:54:42.236Z,21.17
2017-10-02T21:57:09.135Z,19.00
2017-10-02T21:59:35.212Z,18.10
2017-10-02T22:02:01.372Z,18.27
2017-10-02T22:04:28.284Z,15.43
2017-10-02T22:06:54.373Z,26.40
2017-10-02T22:09:21.227Z,23.13
2017-10-02T22:11:47.447Z,16.83
2017-10-02T22:14:13.536Z,23.60
2017-10-02T22:16:39.860Z,20.03
2017-10-02T22:19:06.009Z,15.53
2017-10-02T22:21:32.130Z,17.70
2017-10-02T22:23:58.288Z,19.27
2017-10-02T22:26:24.588Z,21.20
2017-10-02T22:28:51.510Z,24.27
2017-10-02T22:31:17.634Z,53.53
2017-10-02T22:33:43.795Z,17.73
2017-10-02T22:36:09.919Z,20.97
2017-10-02T22:41:19.714Z,20.10
2017-10-02T22:43:45.831Z,32.73
2017-10-02T22:46:11.936Z,20.97
2017-10-02T22:51:39.541Z,22.20
2017-10-02T22:54:06.418Z,18.20
2017-10-02T22:56:32.531Z,19.53
2017-10-02T23:01:31.406Z,17.63
2017-10-02T23:03:57.498Z,24.23
2017-10-02T23:06:23.568Z,21.77
2017-10-02T23:08:49.679Z,18.30
2017-10-02T23:11:16.498Z,21.20
2017-10-02T23:13:42.597Z,23.83
2017-10-02T23:16:08.763Z,28.43
2017-10-02T23:18:34.879Z,18.90
2017-10-02T23:21:01.020Z,23.03
2017-10-02T23:23:27.163Z,23.17
2017-10-02T23:25:53.229Z,20.47
2017-10-02T23:28:19.334Z,21.90
2017-10-02T23:30:45.547Z,19.63
2017-10-02T23:33:19.161Z,22.40
2017-10-02T23:35:45.346Z,18.40
2017-10-02T23:38:11.538Z,20.43
2017-10-02T23:40:38.362Z,25.27
2017-10-02T23:43:04.608Z,16.47
2017-10-02T23:45:30.732Z,25.83
2017-10-02T23:47:56.801Z,21.30
2017-10-02T23:50:23.678Z,23.47
2017-10-02T23:52:49.803Z,23.13
2017-10-02T23:55:16.678Z,22.80
2017-10-02T23:57:42.842Z,22.67
